CYPD

Details ICAO CYPD
Name PORT HAWKESBURY
Region Canada
Timezone America/Halifax (UTC-4.0)
Plans Departing 1
Arriving 2
Stats Elevation 377 ft / 115 m (AMSL)
Location 45.656509° -61.368368°
Runways 1
Magnetic Variation 17.885° W
Sunrise 2017-12-12 11:38:30 UTC / 2017-12-12 07:38:30 Local
Sunset 2017-12-12 20:22:56 UTC / 2017-12-12 16:22:56 Local
Advertisement - Login to hide

Runways

ID Width Length Bearing (true) Bearing (mag) Surface Threshold Offset Overrun Length
11 150 ft / 46 m 4,988 ft / 1,521 m 90.19° 108.08° Asphalt 0 ft / 0 m 0 ft / 0 m
29 150 ft / 46 m 4,988 ft / 1,521 m 270.20° 288.09° Asphalt 0 ft / 0 m 0 ft / 0 m

Map

Weather


0- 5 10 15 20 25 30 35+ Temperature / ° C

Clouds and Precipitation
Forecast for 2017-12-12 12:00 UTC. Updated an hour ago

Ground ~20,000 ft ~40,000 ft Winds

METAR

CYPD 120824Z AUTO 34004KT 300V010 9SM FEW022 M01/M02 A3000 RMK SLP168

TAF

Not found

Frequencies

Unicom 122.80 MHz CTAF/UNICOM
Warning: Do not use this data for real-world aviation or navigation. No guarantee of current accuracy is given.